sensor_id;sensor_type;location;lat;lon;timestamp;pressure;altitude;pressure_sealevel;temperature;humidity
76022;BME280;64718;52.124;6.226;2023-06-24T00:00:37;102415.16;;;15.62;100.00
76022;BME280;64718;52.124;6.226;2023-06-24T00:03:04;102418.63;;;15.63;100.00
76022;BME280;64718;52.124;6.226;2023-06-24T00:05:33;102420.41;;;15.62;100.00
76022;BME280;64718;52.124;6.226;2023-06-24T00:07:59;102425.72;;;15.61;100.00
76022;BME280;64718;52.124;6.226;2023-06-24T00:10:28;102419.72;;;15.56;100.00
76022;BME280;64718;52.124;6.226;2023-06-24T00:12:56;102420.50;;;15.59;100.00
76022;BME280;64718;52.124;6.226;2023-06-24T00:15:26;102417.28;;;15.51;100.00
76022;BME280;64718;52.124;6.226;2023-06-24T00:17:53;102422.69;;;15.46;100.00
76022;BME280;64718;52.124;6.226;2023-06-24T00:20:19;102429.94;;;15.65;100.00
76022;BME280;64718;52.124;6.226;2023-06-24T00:22:46;102427.66;;;15.54;100.00
76022;BME280;64718;52.124;6.226;2023-06-24T00:25:14;102419.31;;;15.68;100.00
76022;BME280;64718;52.124;6.226;2023-06-24T00:27:41;102421.88;;;15.69;100.00
76022;BME280;64718;52.124;6.226;2023-06-24T00:30:10;102418.22;;;15.73;100.00
76022;BME280;64718;52.124;6.226;2023-06-24T00:32:37;102418.97;;;15.77;100.00
76022;BME280;64718;52.124;6.226;2023-06-24T00:35:05;102422.38;;;15.79;100.00
76022;BME280;64718;52.124;6.226;2023-06-24T00:37:31;102424.81;;;15.84;100.00
76022;BME280;64718;52.124;6.226;2023-06-24T00:39:58;102422.06;;;15.87;100.00
76022;BME280;64718;52.124;6.226;2023-06-24T00:42:25;102430.69;;;15.90;100.00
76022;BME280;64718;52.124;6.226;2023-06-24T00:44:52;102427.03;;;15.94;100.00
76022;BME280;64718;52.124;6.226;2023-06-24T00:47:20;102421.59;;;15.99;100.00
76022;BME280;64718;52.124;6.226;2023-06-24T00:49:47;102415.53;;;15.97;100.00
76022;BME280;64718;52.124;6.226;2023-06-24T00:52:13;102414.94;;;15.90;100.00
76022;BME280;64718;52.124;6.226;2023-06-24T00:54:41;102410.53;;;15.91;100.00
76022;BME280;64718;52.124;6.226;2023-06-24T00:57:08;102410.78;;;15.85;100.00
76022;BME280;64718;52.124;6.226;2023-06-24T00:59:36;102419.94;;;15.74;100.00
76022;BME280;64718;52.124;6.226;2023-06-24T01:02:04;102417.38;;;15.73;100.00
76022;BME280;64718;52.124;6.226;2023-06-24T01:04:33;102420.34;;;15.64;100.00
76022;BME280;64718;52.124;6.226;2023-06-24T01:07:00;102423.88;;;15.63;100.00
76022;BME280;64718;52.124;6.226;2023-06-24T01:09:27;102421.31;;;15.61;100.00
76022;BME280;64718;52.124;6.226;2023-06-24T01:11:54;102417.22;;;15.52;100.00
76022;BME280;64718;52.124;6.226;2023-06-24T01:14:21;102419.34;;;15.43;100.00
76022;BME280;64718;52.124;6.226;2023-06-24T01:16:53;102417.00;;;15.35;100.00
76022;BME280;64718;52.124;6.226;2023-06-24T01:19:50;102413.69;;;15.30;100.00
76022;BME280;64718;52.124;6.226;2023-06-24T01:22:35;102405.72;;;15.33;100.00
76022;BME280;64718;52.124;6.226;2023-06-24T01:25:19;102412.22;;;15.23;100.00
76022;BME280;64718;52.124;6.226;2023-06-24T01:28:05;102414.22;;;15.16;100.00
76022;BME280;64718;52.124;6.226;2023-06-24T01:31:06;102415.34;;;15.09;100.00
76022;BME280;64718;52.124;6.226;2023-06-24T01:33:41;102404.97;;;15.06;100.00
76022;BME280;64718;52.124;6.226;2023-06-24T01:36:12;102404.13;;;15.06;100.00
76022;BME280;64718;52.124;6.226;2023-06-24T01:38:44;102406.78;;;15.04;100.00
76022;BME280;64718;52.124;6.226;2023-06-24T01:41:16;102406.97;;;14.98;100.00
76022;BME280;64718;52.124;6.226;2023-06-24T01:43:45;102403.63;;;14.95;100.00
76022;BME280;64718;52.124;6.226;2023-06-24T01:46:14;102405.44;;;14.93;100.00
76022;BME280;64718;52.124;6.226;2023-06-24T01:48:44;102398.44;;;14.93;100.00
76022;BME280;64718;52.124;6.226;2023-06-24T01:51:17;102400.19;;;14.93;100.00
76022;BME280;64718;52.124;6.226;2023-06-24T01:53:48;102404.81;;;14.86;100.00
76022;BME280;64718;52.124;6.226;2023-06-24T01:56:17;102393.47;;;14.85;100.00
76022;BME280;64718;52.124;6.226;2023-06-24T01:58:45;102397.84;;;14.85;100.00
76022;BME280;64718;52.124;6.226;2023-06-24T02:01:14;102393.53;;;14.84;100.00
76022;BME280;64718;52.124;6.226;2023-06-24T02:03:43;102390.09;;;14.82;100.00
76022;BME280;64718;52.124;6.226;2023-06-24T02:06:12;102391.00;;;14.81;100.00
76022;BME280;64718;52.124;6.226;2023-06-24T02:08:41;102393.69;;;14.79;100.00
76022;BME280;64718;52.124;6.226;2023-06-24T02:11:10;102393.09;;;14.71;100.00
76022;BME280;64718;52.124;6.226;2023-06-24T02:13:37;102389.91;;;14.63;100.00
76022;BME280;64718;52.124;6.226;2023-06-24T02:16:06;102392.50;;;14.63;100.00
76022;BME280;64718;52.124;6.226;2023-06-24T02:18:35;102388.13;;;14.64;100.00
76022;BME280;64718;52.124;6.226;2023-06-24T02:21:05;102393.25;;;14.67;100.00
76022;BME280;64718;52.124;6.226;2023-06-24T02:23:33;102401.16;;;14.65;100.00
76022;BME280;64718;52.124;6.226;2023-06-24T02:26:01;102399.63;;;14.60;100.00
76022;BME280;64718;52.124;6.226;2023-06-24T02:28:29;102391.06;;;14.54;100.00
76022;BME280;64718;52.124;6.226;2023-06-24T02:30:56;102394.34;;;14.61;100.00
76022;BME280;64718;52.124;6.226;2023-06-24T02:33:23;102389.91;;;14.63;100.00
76022;BME280;64718;52.124;6.226;2023-06-24T02:35:51;102397.00;;;14.60;100.00
76022;BME280;64718;52.124;6.226;2023-06-24T02:38:19;102389.25;;;14.57;100.00
76022;BME280;64718;52.124;6.226;2023-06-24T02:40:46;102387.66;;;14.52;100.00
76022;BME280;64718;52.124;6.226;2023-06-24T02:43:13;102394.66;;;14.52;100.00
76022;BME280;64718;52.124;6.226;2023-06-24T02:45:40;102390.44;;;14.48;100.00
76022;BME280;64718;52.124;6.226;2023-06-24T02:48:08;102393.91;;;14.48;100.00
76022;BME280;64718;52.124;6.226;2023-06-24T02:50:37;102395.59;;;14.49;100.00
76022;BME280;64718;52.124;6.226;2023-06-24T02:53:06;102388.63;;;14.50;100.00
76022;BME280;64718;52.124;6.226;2023-06-24T02:55:34;102391.94;;;14.55;100.00
76022;BME280;64718;52.124;6.226;2023-06-24T02:58:02;102394.91;;;14.69;100.00
76022;BME280;64718;52.124;6.226;2023-06-24T03:00:30;102404.16;;;14.79;100.00
76022;BME280;64718;52.124;6.226;2023-06-24T03:02:59;102402.97;;;14.88;100.00
76022;BME280;64718;52.124;6.226;2023-06-24T03:05:26;102413.06;;;14.99;100.00
76022;BME280;64718;52.124;6.226;2023-06-24T03:07:53;102402.34;;;15.06;100.00
76022;BME280;64718;52.124;6.226;2023-06-24T03:10:23;102404.81;;;15.11;100.00
76022;BME280;64718;52.124;6.226;2023-06-24T03:12:51;102416.19;;;15.10;100.00
76022;BME280;64718;52.124;6.226;2023-06-24T03:15:18;102409.31;;;15.07;100.00
76022;BME280;64718;52.124;6.226;2023-06-24T03:17:45;102402.25;;;15.09;100.00
76022;BME280;64718;52.124;6.226;2023-06-24T03:20:12;102407.47;;;15.09;100.00
76022;BME280;64718;52.124;6.226;2023-06-24T03:22:39;102404.31;;;15.00;100.00
76022;BME280;64718;52.124;6.226;2023-06-24T03:25:06;102396.72;;;14.92;100.00
76022;BME280;64718;52.124;6.226;2023-06-24T03:27:33;102397.84;;;14.85;100.00
76022;BME280;64718;52.124;6.226;2023-06-24T03:30:01;102395.63;;;14.74;100.00
76022;BME280;64718;52.124;6.226;2023-06-24T03:32:28;102395.56;;;14.76;100.00
76022;BME280;64718;52.124;6.226;2023-06-24T03:34:54;102403.63;;;14.70;100.00
76022;BME280;64718;52.124;6.226;2023-06-24T03:37:21;102402.66;;;14.72;100.00
76022;BME280;64718;52.124;6.226;2023-06-24T03:39:47;102402.50;;;14.77;100.00
76022;BME280;64718;52.124;6.226;2023-06-24T03:42:14;102401.31;;;14.85;100.00
76022;BME280;64718;52.124;6.226;2023-06-24T03:44:40;102397.91;;;14.83;100.00
76022;BME280;64718;52.124;6.226;2023-06-24T03:47:08;102397.00;;;14.84;100.00
76022;BME280;64718;52.124;6.226;2023-06-24T03:49:35;102395.75;;;14.95;100.00
76022;BME280;64718;52.124;6.226;2023-06-24T03:52:02;102405.09;;;15.03;100.00
76022;BME280;64718;52.124;6.226;2023-06-24T03:54:31;102407.78;;;15.00;100.00
76022;BME280;64718;52.124;6.226;2023-06-24T03:56:57;102406.56;;;15.10;100.00
76022;BME280;64718;52.124;6.226;2023-06-24T03:59:24;102405.84;;;15.30;100.00
76022;BME280;64718;52.124;6.226;2023-06-24T04:01:50;102411.19;;;15.50;100.00
76022;BME280;64718;52.124;6.226;2023-06-24T04:04:18;102413.09;;;15.70;100.00
76022;BME280;64718;52.124;6.226;2023-06-24T04:06:45;102407.84;;;15.92;100.00
76022;BME280;64718;52.124;6.226;2023-06-24T04:09:11;102404.63;;;16.07;100.00
76022;BME280;64718;52.124;6.226;2023-06-24T04:11:38;102406.63;;;16.23;100.00
76022;BME280;64718;52.124;6.226;2023-06-24T04:14:04;102407.97;;;16.33;100.00
76022;BME280;64718;52.124;6.226;2023-06-24T04:16:32;102396.34;;;16.38;100.00
76022;BME280;64718;52.124;6.226;2023-06-24T04:18:58;102403.84;;;16.48;100.00
76022;BME280;64718;52.124;6.226;2023-06-24T04:21:26;102403.38;;;16.58;100.00
76022;BME280;64718;52.124;6.226;2023-06-24T04:23:53;102403.13;;;16.64;100.00
76022;BME280;64718;52.124;6.226;2023-06-24T04:26:20;102400.25;;;16.70;100.00
76022;BME280;64718;52.124;6.226;2023-06-24T04:28:46;102397.25;;;16.80;100.00
76022;BME280;64718;52.124;6.226;2023-06-24T04:31:13;102396.59;;;16.95;100.00
76022;BME280;64718;52.124;6.226;2023-06-24T04:33:39;102401.09;;;17.12;100.00
76022;BME280;64718;52.124;6.226;2023-06-24T04:36:06;102401.63;;;17.38;100.00
76022;BME280;64718;52.124;6.226;2023-06-24T04:38:34;102404.84;;;17.45;100.00
76022;BME280;64718;52.124;6.226;2023-06-24T04:41:00;102403.94;;;17.26;100.00
76022;BME280;64718;52.124;6.226;2023-06-24T04:43:27;102400.16;;;17.13;100.00
76022;BME280;64718;52.124;6.226;2023-06-24T04:45:54;102409.03;;;17.10;100.00
76022;BME280;64718;52.124;6.226;2023-06-24T04:48:22;102402.84;;;17.11;100.00
76022;BME280;64718;52.124;6.226;2023-06-24T04:50:49;102395.53;;;17.18;100.00
76022;BME280;64718;52.124;6.226;2023-06-24T04:53:16;102397.72;;;17.47;100.00
76022;BME280;64718;52.124;6.226;2023-06-24T04:55:44;102395.59;;;18.10;100.00
76022;BME280;64718;52.124;6.226;2023-06-24T04:58:10;102396.38;;;18.99;100.00
76022;BME280;64718;52.124;6.226;2023-06-24T05:00:37;102389.59;;;19.90;95.07
76022;BME280;64718;52.124;6.226;2023-06-24T05:03:04;102393.56;;;20.73;89.30
76022;BME280;64718;52.124;6.226;2023-06-24T05:05:30;102391.16;;;21.27;87.00
76022;BME280;64718;52.124;6.226;2023-06-24T05:07:57;102392.28;;;21.37;83.85
76022;BME280;64718;52.124;6.226;2023-06-24T05:10:23;102385.13;;;22.07;81.19
76022;BME280;64718;52.124;6.226;2023-06-24T05:12:51;102382.78;;;22.03;80.14
76022;BME280;64718;52.124;6.226;2023-06-24T05:15:18;102377.66;;;22.27;79.73
76022;BME280;64718;52.124;6.226;2023-06-24T05:17:44;102392.28;;;22.85;76.44
76022;BME280;64718;52.124;6.226;2023-06-24T05:20:11;102390.03;;;23.17;74.20
76022;BME280;64718;52.124;6.226;2023-06-24T05:22:38;102391.94;;;23.15;75.03
76022;BME280;64718;52.124;6.226;2023-06-24T05:25:05;102390.88;;;23.54;73.32
76022;BME280;64718;52.124;6.226;2023-06-24T05:27:32;102392.78;;;23.64;71.92
76022;BME280;64718;52.124;6.226;2023-06-24T05:30:00;102390.16;;;23.88;69.72
76022;BME280;64718;52.124;6.226;2023-06-24T05:32:26;102393.16;;;24.32;70.19
76022;BME280;64718;52.124;6.226;2023-06-24T05:34:53;102389.34;;;24.58;67.97
76022;BME280;64718;52.124;6.226;2023-06-24T05:37:19;102390.28;;;24.46;68.44
76022;BME280;64718;52.124;6.226;2023-06-24T05:39:46;102393.78;;;24.46;67.07
76022;BME280;64718;52.124;6.226;2023-06-24T05:42:13;102396.13;;;24.73;65.42
76022;BME280;64718;52.124;6.226;2023-06-24T05:44:39;102400.41;;;24.17;68.62
76022;BME280;64718;52.124;6.226;2023-06-24T05:47:07;102399.44;;;24.88;67.75
76022;BME280;64718;52.124;6.226;2023-06-24T05:49:34;102393.34;;;24.64;66.67
76022;BME280;64718;52.124;6.226;2023-06-24T05:52:00;102387.31;;;24.84;65.42
76022;BME280;64718;52.124;6.226;2023-06-24T05:54:27;102393.22;;;24.65;65.96
76022;BME280;64718;52.124;6.226;2023-06-24T05:56:53;102392.81;;;25.93;62.94
76022;BME280;64718;52.124;6.226;2023-06-24T05:59:20;102391.59;;;24.98;64.20
76022;BME280;64718;52.124;6.226;2023-06-24T06:01:46;102395.09;;;25.32;62.75
76022;BME280;64718;52.124;6.226;2023-06-24T06:04:14;102397.13;;;26.05;60.49
76022;BME280;64718;52.124;6.226;2023-06-24T06:06:41;102403.19;;;25.52;62.35
76022;BME280;64718;52.124;6.226;2023-06-24T06:09:08;102403.47;;;25.93;60.97
76022;BME280;64718;52.124;6.226;2023-06-24T06:11:34;102402.97;;;25.22;61.72
76022;BME280;64718;52.124;6.226;2023-06-24T06:14:01;102410.69;;;25.59;61.81
76022;BME280;64718;52.124;6.226;2023-06-24T06:16:27;102402.63;;;25.92;60.29
76022;BME280;64718;52.124;6.226;2023-06-24T06:18:54;102405.19;;;25.82;60.81
76022;BME280;64718;52.124;6.226;2023-06-24T06:21:22;102402.41;;;26.69;58.50
76022;BME280;64718;52.124;6.226;2023-06-24T06:23:49;102402.75;;;26.85;58.75
76022;BME280;64718;52.124;6.226;2023-06-24T06:26:15;102401.72;;;26.56;56.67
76022;BME280;64718;52.124;6.226;2023-06-24T06:28:42;102397.31;;;25.81;58.63
76022;BME280;64718;52.124;6.226;2023-06-24T06:31:08;102395.44;;;27.08;57.24
76022;BME280;64718;52.124;6.226;2023-06-24T06:33:35;102391.03;;;27.87;52.26
76022;BME280;64718;52.124;6.226;2023-06-24T06:36:02;102389.06;;;27.30;53.61
76022;BME280;64718;52.124;6.226;2023-06-24T06:38:29;102399.19;;;27.76;51.93
76022;BME280;64718;52.124;6.226;2023-06-24T06:40:56;102398.22;;;27.77;52.16
76022;BME280;64718;52.124;6.226;2023-06-24T06:43:23;102395.06;;;27.72;51.94
76022;BME280;64718;52.124;6.226;2023-06-24T06:45:49;102398.97;;;26.88;53.23
76022;BME280;64718;52.124;6.226;2023-06-24T06:48:16;102395.25;;;27.99;53.25
76022;BME280;64718;52.124;6.226;2023-06-24T06:50:42;102396.22;;;28.56;50.23
76022;BME280;64718;52.124;6.226;2023-06-24T06:53:09;102410.19;;;27.83;51.01
76022;BME280;64718;52.124;6.226;2023-06-24T06:55:37;102412.09;;;27.21;49.77
76022;BME280;64718;52.124;6.226;2023-06-24T06:58:04;102407.22;;;28.05;49.25
76022;BME280;64718;52.124;6.226;2023-06-24T07:00:31;102404.13;;;28.48;48.03
76022;BME280;64718;52.124;6.226;2023-06-24T07:02:57;102408.22;;;28.43;47.14
76022;BME280;64718;52.124;6.226;2023-06-24T07:05:24;102415.53;;;27.02;48.50
76022;BME280;64718;52.124;6.226;2023-06-24T07:07:50;102405.53;;;28.14;46.08
76022;BME280;64718;52.124;6.226;2023-06-24T07:10:19;102412.72;;;27.84;47.32
76022;BME280;64718;52.124;6.226;2023-06-24T07:12:47;102406.03;;;28.75;45.37
76022;BME280;64718;52.124;6.226;2023-06-24T07:15:13;102406.53;;;28.42;45.28
76022;BME280;64718;52.124;6.226;2023-06-24T07:17:41;102409.59;;;28.56;45.40
76022;BME280;64718;52.124;6.226;2023-06-24T07:20:08;102412.31;;;28.37;43.79
76022;BME280;64718;52.124;6.226;2023-06-24T07:22:35;102415.81;;;28.47;42.33
76022;BME280;64718;52.124;6.226;2023-06-24T07:25:02;102419.16;;;29.15;42.15
76022;BME280;64718;52.124;6.226;2023-06-24T07:27:28;102416.59;;;28.86;44.16
76022;BME280;64718;52.124;6.226;2023-06-24T07:29:56;102421.00;;;29.52;41.54
76022;BME280;64718;52.124;6.226;2023-06-24T07:32:23;102416.78;;;29.40;41.45
76022;BME280;64718;52.124;6.226;2023-06-24T07:34:49;102412.19;;;29.77;38.67
76022;BME280;64718;52.124;6.226;2023-06-24T07:37:16;102422.50;;;30.35;37.54
76022;BME280;64718;52.124;6.226;2023-06-24T07:39:42;102422.19;;;30.38;37.78
76022;BME280;64718;52.124;6.226;2023-06-24T07:42:09;102433.31;;;29.35;40.50
76022;BME280;64718;52.124;6.226;2023-06-24T07:44:35;102429.06;;;29.70;37.97
76022;BME280;64718;52.124;6.226;2023-06-24T07:47:06;102426.81;;;29.38;38.03
76022;BME280;64718;52.124;6.226;2023-06-24T07:49:33;102421.72;;;28.60;38.42
76022;BME280;64718;52.124;6.226;2023-06-24T07:51:59;102421.34;;;29.29;39.58
76022;BME280;64718;52.124;6.226;2023-06-24T07:54:26;102422.03;;;28.38;41.41
76022;BME280;64718;52.124;6.226;2023-06-24T07:56:52;102424.88;;;27.58;42.80
76022;BME280;64718;52.124;6.226;2023-06-24T07:59:19;102431.16;;;27.87;44.52
76022;BME280;64718;52.124;6.226;2023-06-24T08:01:45;102414.41;;;27.76;44.13
76022;BME280;64718;52.124;6.226;2023-06-24T08:04:14;102419.69;;;27.66;43.84
76022;BME280;64718;52.124;6.226;2023-06-24T08:06:41;102412.50;;;26.65;44.53
76022;BME280;64718;52.124;6.226;2023-06-24T08:09:07;102412.72;;;26.83;45.33
76022;BME280;64718;52.124;6.226;2023-06-24T08:11:34;102412.31;;;27.49;46.49
76022;BME280;64718;52.124;6.226;2023-06-24T08:14:00;102414.03;;;27.59;45.16
76022;BME280;64718;52.124;6.226;2023-06-24T08:16:28;102409.34;;;27.92;45.32
76022;BME280;64718;52.124;6.226;2023-06-24T08:18:55;102400.28;;;28.60;45.61
76022;BME280;64718;52.124;6.226;2023-06-24T08:21:23;102405.25;;;28.46;43.24
76022;BME280;64718;52.124;6.226;2023-06-24T08:23:49;102406.50;;;29.35;40.99
76022;BME280;64718;52.124;6.226;2023-06-24T08:26:16;102402.22;;;29.42;41.06
76022;BME280;64718;52.124;6.226;2023-06-24T08:28:43;102400.47;;;28.40;40.15
76022;BME280;64718;52.124;6.226;2023-06-24T08:31:09;102395.78;;;29.08;40.45
76022;BME280;64718;52.124;6.226;2023-06-24T08:33:36;102392.81;;;28.64;40.68
76022;BME280;64718;52.124;6.226;2023-06-24T08:36:03;102401.63;;;28.93;38.71
76022;BME280;64718;52.124;6.226;2023-06-24T08:38:31;102396.91;;;29.33;39.16
76022;BME280;64718;52.124;6.226;2023-06-24T08:40:58;102406.25;;;27.96;41.63
76022;BME280;64718;52.124;6.226;2023-06-24T08:43:24;102401.88;;;28.24;39.84
76022;BME280;64718;52.124;6.226;2023-06-24T08:45:51;102409.50;;;27.50;41.41
76022;BME280;64718;52.124;6.226;2023-06-24T08:48:19;102399.25;;;28.71;39.42
76022;BME280;64718;52.124;6.226;2023-06-24T08:50:50;102397.19;;;28.55;38.84
76022;BME280;64718;52.124;6.226;2023-06-24T08:53:18;102396.28;;;30.11;36.75
76022;BME280;64718;52.124;6.226;2023-06-24T08:55:49;102398.16;;;29.38;35.61
76022;BME280;64718;52.124;6.226;2023-06-24T08:58:16;102393.25;;;29.06;37.49
76022;BME280;64718;52.124;6.226;2023-06-24T09:00:43;102397.25;;;28.36;37.33
76022;BME280;64718;52.124;6.226;2023-06-24T09:03:09;102394.94;;;28.60;35.65
76022;BME280;64718;52.124;6.226;2023-06-24T09:05:36;102398.47;;;29.08;36.26
76022;BME280;64718;52.124;6.226;2023-06-24T09:08:02;102402.28;;;28.10;38.21
76022;BME280;64718;52.124;6.226;2023-06-24T09:10:30;102401.88;;;28.44;37.50
76022;BME280;64718;52.124;6.226;2023-06-24T09:12:59;102398.47;;;28.51;37.53
76022;BME280;64718;52.124;6.226;2023-06-24T09:15:29;102405.09;;;27.80;35.90
76022;BME280;64718;52.124;6.226;2023-06-24T09:17:57;102396.00;;;28.77;36.36
76022;BME280;64718;52.124;6.226;2023-06-24T09:20:24;102400.38;;;28.88;37.81
76022;BME280;64718;52.124;6.226;2023-06-24T09:22:51;102404.88;;;28.87;36.17
76022;BME280;64718;52.124;6.226;2023-06-24T09:25:18;102395.97;;;29.24;35.06
76022;BME280;64718;52.124;6.226;2023-06-24T09:27:47;102389.25;;;28.73;35.48
76022;BME280;64718;52.124;6.226;2023-06-24T09:30:20;102390.72;;;28.48;35.57
76022;BME280;64718;52.124;6.226;2023-06-24T09:32:48;102385.91;;;29.08;35.15
76022;BME280;64718;52.124;6.226;2023-06-24T09:35:16;102380.06;;;29.22;33.97
76022;BME280;64718;52.124;6.226;2023-06-24T09:37:49;102381.13;;;29.29;36.10
76022;BME280;64718;52.124;6.226;2023-06-24T09:40:16;102373.69;;;28.49;34.39
76022;BME280;64718;52.124;6.226;2023-06-24T09:42:49;102380.00;;;28.58;35.07
76022;BME280;64718;52.124;6.226;2023-06-24T09:45:21;102374.41;;;28.42;33.99
76022;BME280;64718;52.124;6.226;2023-06-24T09:47:48;102377.22;;;28.01;33.87
76022;BME280;64718;52.124;6.226;2023-06-24T09:50:14;102381.09;;;28.65;33.12
76022;BME280;64718;52.124;6.226;2023-06-24T09:52:42;102373.56;;;28.78;33.60
76022;BME280;64718;52.124;6.226;2023-06-24T09:55:10;102370.91;;;28.78;33.03
76022;BME280;64718;52.124;6.226;2023-06-24T09:57:39;102366.50;;;28.96;32.37
76022;BME280;64718;52.124;6.226;2023-06-24T10:00:08;102369.41;;;28.66;34.01
76022;BME280;64718;52.124;6.226;2023-06-24T10:02:37;102370.94;;;29.33;33.34
76022;BME280;64718;52.124;6.226;2023-06-24T10:05:04;102369.66;;;29.37;34.62
76022;BME280;64718;52.124;6.226;2023-06-24T10:07:32;102368.88;;;28.53;33.31
76022;BME280;64718;52.124;6.226;2023-06-24T10:10:01;102366.94;;;28.16;33.75
76022;BME280;64718;52.124;6.226;2023-06-24T10:12:28;102374.41;;;28.42;33.89
76022;BME280;64718;52.124;6.226;2023-06-24T10:14:54;102366.56;;;28.67;34.30
76022;BME280;64718;52.124;6.226;2023-06-24T10:17:21;102368.50;;;28.85;33.43
76022;BME280;64718;52.124;6.226;2023-06-24T10:19:51;102358.06;;;28.82;34.99
76022;BME280;64718;52.124;6.226;2023-06-24T10:22:22;102365.25;;;28.44;35.71
76022;BME280;64718;52.124;6.226;2023-06-24T10:24:49;102363.75;;;28.69;35.75
76022;BME280;64718;52.124;6.226;2023-06-24T10:27:18;102355.50;;;28.90;34.41
76022;BME280;64718;52.124;6.226;2023-06-24T10:29:48;102358.63;;;28.39;34.73
76022;BME280;64718;52.124;6.226;2023-06-24T10:32:15;102360.19;;;28.41;36.70
76022;BME280;64718;52.124;6.226;2023-06-24T10:34:43;102353.28;;;28.29;36.02
76022;BME280;64718;52.124;6.226;2023-06-24T10:37:12;102360.03;;;28.04;38.08
76022;BME280;64718;52.124;6.226;2023-06-24T10:39:50;102353.69;;;28.05;37.65
76022;BME280;64718;52.124;6.226;2023-06-24T10:42:31;102343.53;;;28.18;38.82
76022;BME280;64718;52.124;6.226;2023-06-24T10:45:00;102353.44;;;28.37;36.59
76022;BME280;64718;52.124;6.226;2023-06-24T10:47:28;102355.53;;;28.14;38.33
76022;BME280;64718;52.124;6.226;2023-06-24T10:49:55;102349.75;;;28.28;35.81
76022;BME280;64718;52.124;6.226;2023-06-24T10:52:23;102349.78;;;27.80;37.07
76022;BME280;64718;52.124;6.226;2023-06-24T10:54:51;102342.72;;;28.08;38.14
76022;BME280;64718;52.124;6.226;2023-06-24T10:57:21;102341.72;;;28.38;37.35
76022;BME280;64718;52.124;6.226;2023-06-24T10:59:50;102344.31;;;28.67;38.08
76022;BME280;64718;52.124;6.226;2023-06-24T11:02:17;102345.44;;;28.64;36.09
76022;BME280;64718;52.124;6.226;2023-06-24T11:04:44;102333.63;;;28.57;36.66
76022;BME280;64718;52.124;6.226;2023-06-24T11:07:11;102333.22;;;28.89;36.29
76022;BME280;64718;52.124;6.226;2023-06-24T11:09:40;102332.16;;;29.10;35.81
76022;BME280;64718;52.124;6.226;2023-06-24T11:12:09;102339.06;;;29.12;35.69
76022;BME280;64718;52.124;6.226;2023-06-24T11:14:38;102333.06;;;28.54;36.35
76022;BME280;64718;52.124;6.226;2023-06-24T11:17:04;102334.06;;;29.00;35.98
76022;BME280;64718;52.124;6.226;2023-06-24T11:19:31;102330.03;;;28.76;36.63
76022;BME280;64718;52.124;6.226;2023-06-24T11:22:01;102325.06;;;28.91;37.24
76022;BME280;64718;52.124;6.226;2023-06-24T11:24:28;102324.81;;;29.12;37.09
76022;BME280;64718;52.124;6.226;2023-06-24T11:26:56;102328.09;;;29.06;38.03
76022;BME280;64718;52.124;6.226;2023-06-24T11:29:23;102327.00;;;28.99;36.95
76022;BME280;64718;52.124;6.226;2023-06-24T11:31:50;102320.47;;;29.28;37.40
76022;BME280;64718;52.124;6.226;2023-06-24T11:34:17;102313.72;;;29.52;36.80
76022;BME280;64718;52.124;6.226;2023-06-24T11:36:44;102309.88;;;29.54;38.23
76022;BME280;64718;52.124;6.226;2023-06-24T11:39:20;102319.84;;;29.17;36.10
76022;BME280;64718;52.124;6.226;2023-06-24T11:41:47;102306.66;;;29.51;36.97
76022;BME280;64718;52.124;6.226;2023-06-24T11:44:17;102304.13;;;29.67;35.90
76022;BME280;64718;52.124;6.226;2023-06-24T11:46:43;102310.19;;;29.24;37.17
76022;BME280;64718;52.124;6.226;2023-06-24T11:49:10;102306.59;;;29.61;36.84
76022;BME280;64718;52.124;6.226;2023-06-24T11:51:45;102307.28;;;29.63;35.69
76022;BME280;64718;52.124;6.226;2023-06-24T11:54:14;102290.75;;;29.93;36.36
76022;BME280;64718;52.124;6.226;2023-06-24T11:56:42;102301.09;;;29.88;37.45
76022;BME280;64718;52.124;6.226;2023-06-24T11:59:17;102291.50;;;30.21;34.80
76022;BME280;64718;52.124;6.226;2023-06-24T12:01:45;102301.53;;;30.45;36.46
76022;BME280;64718;52.124;6.226;2023-06-24T12:04:12;102287.28;;;30.01;35.35
76022;BME280;64718;52.124;6.226;2023-06-24T12:06:39;102288.59;;;30.14;35.42
76022;BME280;64718;52.124;6.226;2023-06-24T12:09:06;102286.47;;;29.82;35.53
76022;BME280;64718;52.124;6.226;2023-06-24T12:11:33;102286.56;;;30.42;36.42
76022;BME280;64718;52.124;6.226;2023-06-24T12:13:59;102284.09;;;30.75;35.50
76022;BME280;64718;52.124;6.226;2023-06-24T12:16:28;102283.59;;;30.19;34.27
76022;BME280;64718;52.124;6.226;2023-06-24T12:18:55;102285.63;;;30.86;34.95
76022;BME280;64718;52.124;6.226;2023-06-24T12:21:22;102281.44;;;30.91;34.40
76022;BME280;64718;52.124;6.226;2023-06-24T12:23:48;102289.50;;;30.57;33.85
76022;BME280;64718;52.124;6.226;2023-06-24T12:26:15;102289.72;;;30.38;34.89
76022;BME280;64718;52.124;6.226;2023-06-24T12:28:41;102287.09;;;30.46;34.48
76022;BME280;64718;52.124;6.226;2023-06-24T12:31:08;102284.28;;;30.90;35.25
76022;BME280;64718;52.124;6.226;2023-06-24T12:33:36;102280.94;;;30.96;35.34
76022;BME280;64718;52.124;6.226;2023-06-24T12:36:03;102265.44;;;31.40;34.48
76022;BME280;64718;52.124;6.226;2023-06-24T12:38:30;102276.88;;;31.26;33.22
76022;BME280;64718;52.124;6.226;2023-06-24T12:40:58;102273.91;;;31.03;31.74
76022;BME280;64718;52.124;6.226;2023-06-24T12:43:24;102278.88;;;30.73;33.56
76022;BME280;64718;52.124;6.226;2023-06-24T12:45:51;102268.53;;;30.95;33.65
76022;BME280;64718;52.124;6.226;2023-06-24T12:48:18;102273.97;;;31.19;34.83